American Integrity — WDD2875 — position and weather

sailwx.info

Track history (hours):
 
Tides and Currents Weather Stations Pressure Air Temp Water Temp Dewpoint Dewpoint Depression Visibility Wind Speed Wind Dir Waves Ship Positions

American Integrity

More information available from US FCC via Universal Licensing System and Coast Guard Vessel Documentation Center.

Last reported at 2014-Sep-16 11:33 UTC. Time now 2014-Sep-18 17:49 UTC.
Position N 46°46' W 084°54'.

; draft 8 m.

Type: Cargo ship. MMSI: 367120990.

Date/timePositionNaut miles runAvg speedWind from/ knotsBaromVisibWave heightAir tempDewpointWater temp
2014-Sep-16 11:33N 46°46' W 084°54'1212.4
2014-Sep-16 10:33N 46°35' W 084°45'1311.2
2014-Sep-16 09:23N 46°27' W 084°30'13 4.4
2014-Sep-16 06:19N 46°22' W 084°12'14 7.5
2014-Sep-16 04:29N 46°10' W 084°03'9 9.9
2014-Sep-16 03:32N 46°02' W 083°55'1111.3
2014-Sep-16 02:33N 45°52' W 083°49'6 0.1
2014-Sep-14 01:07N 45°57' W 083°54'  
2014-Sep-10 06:06N 46°54' W 084°59'4 7.0
2014-Sep-10 05:30N 46°50' W 084°57'7 7.0
2014-Sep-10 04:33N 46°44' W 084°53'7 7.1
2014-Sep-10 03:33N 46°38' W 084°48'7 6.9
2014-Sep-10 02:33N 46°33' W 084°41'9 8.7
2014-Sep-10 01:34N 46°27' W 084°32'31 3.7
2014-Sep-09 17:21N 46°05' W 084°01'810.3
2014-Sep-09 16:33N 45°59' W 083°53'1211.9
2014-Sep-09 15:33N 45°51' W 084°07'1312.6
2014-Sep-09 14:33N 45°51' W 084°25'1212.4
2014-Sep-09 13:33N 45°49' W 084°43'1312.8
2014-Sep-09 12:33N 45°50' W 085°01'10 9.6
2014-Sep-09 11:33N 45°44' W 085°11'1313.0
2014-Sep-09 10:33N 45°33' W 085°22'1313.2
2014-Sep-09 09:33N 45°23' W 085°34'1313.3
2014-Sep-09 08:33N 45°12' W 085°45'1313.1
2014-Sep-09 07:33N 45°01' W 085°56'1312.9
2014-Sep-09 06:33N 44°55' W 086°12'1313.1
2014-Sep-09 05:33N 44°49' W 086°28'1313.0
2014-Sep-09 04:33N 44°43' W 086°44'1312.2
2014-Sep-09 03:31N 44°31' W 086°52'82 2.2
2014-Sep-07 14:33N 43°10' W 087°06'2612.0
2014-Sep-07 12:25N 43°35' W 086°57'1112.0
2014-Sep-07 11:30N 43°45' W 086°53'1111.9
2014-Sep-07 10:33N 43°56' W 086°48'1212.0
2014-Sep-07 09:33N 44°07' W 086°44'1312.0
2014-Sep-07 08:30N 44°20' W 086°39'2411.9
2014-Sep-07 06:28N 44°43' W 086°30'2511.9
2014-Sep-07 04:21N 45°07' W 086°20'911.7
2014-Sep-07 03:33N 45°16' W 086°16'1211.7
2014-Sep-07 02:33N 45°27' W 086°12'1211.9
2014-Sep-07 01:33N 45°39' W 086°07'1111.4
2014-Sep-07 00:33N 45°46' W 085°54'1211.8
2014-Sep-06 23:33N 45°52' W 085°40'1111.0
2014-Sep-06 22:33N 45°53' W 085°24'1111.2
2014-Sep-06 21:33N 45°52' W 085°08'1111.3
2014-Sep-06 20:33N 45°50' W 084°52'1010.3
2014-Sep-06 19:33N 45°50' W 084°37'10 9.9
2014-Sep-06 18:33N 45°52' W 084°23'1111.3
2014-Sep-06 17:33N 45°54' W 084°07'1010.3
2014-Sep-06 16:33N 45°58' W 083°54'11 9.0
2014-Sep-06 15:20N 46°08' W 084°01'13 7.3
2014-Sep-06 13:33N 46°18' W 084°13'7 7.2
2014-Sep-06 12:33N 46°25' W 084°15'  
Track history (hours):
 
Tides and Currents Weather Stations Pressure Air Temp Water Temp Dewpoint Dewpoint Depression Visibility Wind Speed Wind Dir Waves Ship Positions

American Integrity

More information available from US FCC via Universal Licensing System and Coast Guard Vessel Documentation Center.

Last reported at 2014-Sep-16 11:33 UTC. Time now 2014-Sep-18 17:49 UTC.
Position N 46°46' W 084°54'.

; draft 8 m.

Type: Cargo ship. MMSI: 367120990.

Date/timePositionNaut miles runAvg speedWind from/ knotsBaromVisibWave heightAir tempDewpointWater temp
2014-Sep-16 11:33N 46°46' W 084°54'1212.4
2014-Sep-16 10:33N 46°35' W 084°45'1311.2
2014-Sep-16 09:23N 46°27' W 084°30'13 4.4
2014-Sep-16 06:19N 46°22' W 084°12'14 7.5
2014-Sep-16 04:29N 46°10' W 084°03'9 9.9
2014-Sep-16 03:32N 46°02' W 083°55'1111.3
2014-Sep-16 02:33N 45°52' W 083°49'6 0.1
2014-Sep-14 01:07N 45°57' W 083°54'  
2014-Sep-10 06:06N 46°54' W 084°59'4 7.0
2014-Sep-10 05:30N 46°50' W 084°57'7 7.0
2014-Sep-10 04:33N 46°44' W 084°53'7 7.1
2014-Sep-10 03:33N 46°38' W 084°48'7 6.9
2014-Sep-10 02:33N 46°33' W 084°41'9 8.7
2014-Sep-10 01:34N 46°27' W 084°32'31 3.7
2014-Sep-09 17:21N 46°05' W 084°01'810.3
2014-Sep-09 16:33N 45°59' W 083°53'1211.9
2014-Sep-09 15:33N 45°51' W 084°07'1312.6
2014-Sep-09 14:33N 45°51' W 084°25'1212.4
2014-Sep-09 13:33N 45°49' W 084°43'1312.8
2014-Sep-09 12:33N 45°50' W 085°01'10 9.6
2014-Sep-09 11:33N 45°44' W 085°11'1313.0
2014-Sep-09 10:33N 45°33' W 085°22'1313.2
2014-Sep-09 09:33N 45°23' W 085°34'1313.3
2014-Sep-09 08:33N 45°12' W 085°45'1313.1
2014-Sep-09 07:33N 45°01' W 085°56'1312.9
2014-Sep-09 06:33N 44°55' W 086°12'1313.1
2014-Sep-09 05:33N 44°49' W 086°28'1313.0
2014-Sep-09 04:33N 44°43' W 086°44'1312.2
2014-Sep-09 03:31N 44°31' W 086°52'82 2.2
2014-Sep-07 14:33N 43°10' W 087°06'2612.0
2014-Sep-07 12:25N 43°35' W 086°57'1112.0
2014-Sep-07 11:30N 43°45' W 086°53'1111.9
2014-Sep-07 10:33N 43°56' W 086°48'1212.0
2014-Sep-07 09:33N 44°07' W 086°44'1312.0
2014-Sep-07 08:30N 44°20' W 086°39'2411.9
2014-Sep-07 06:28N 44°43' W 086°30'2511.9
2014-Sep-07 04:21N 45°07' W 086°20'911.7
2014-Sep-07 03:33N 45°16' W 086°16'1211.7
2014-Sep-07 02:33N 45°27' W 086°12'1211.9
2014-Sep-07 01:33N 45°39' W 086°07'1111.4
2014-Sep-07 00:33N 45°46' W 085°54'1211.8
2014-Sep-06 23:33N 45°52' W 085°40'1111.0
2014-Sep-06 22:33N 45°53' W 085°24'1111.2
2014-Sep-06 21:33N 45°52' W 085°08'1111.3
2014-Sep-06 20:33N 45°50' W 084°52'1010.3
2014-Sep-06 19:33N 45°50' W 084°37'10 9.9
2014-Sep-06 18:33N 45°52' W 084°23'1111.3
2014-Sep-06 17:33N 45°54' W 084°07'1010.3
2014-Sep-06 16:33N 45°58' W 083°54'11 9.0
2014-Sep-06 15:20N 46°08' W 084°01'13 7.3
2014-Sep-06 13:33N 46°18' W 084°13'7 7.2
2014-Sep-06 12:33N 46°25' W 084°15'  

Dump ship's entire track history